Terminal Aerodrome Forecast
Issued by NWS Tallahassee, FL

Home | Current Version | Previous Version | Text Only | Print | Product List | Glossary On
Versions: 1 2 3 4 5 6 7 8 9 10 11 12
000
FTUS42 KTAE 152320
TAFTLH
TAF
KTLH 152320Z 1600/1624 31005KT P6SM BKN090
     FM160500 01005KT P6SM BKN050
     FM161500 06005KT P6SM BKN250=

USA.gov is the U.S. government's official web portal to all federal, state and local government web resources and services.